Latest Weather Observations for Latrobe Valley

IDV60801

Issued at 10:32 am EST Sunday 24 July 2016 (issued every 30 minutes, with the page automatically refreshed every 10 minutes)

About weather observations | Map of weather stations | Latest weather observations for VIC | Other Formats
Station Details ID: 085280 Name: LATROBE VALLEY AIRPORT Lat: -38.21 Lon: 146.47 Height: 55.7 m
Data from the previous 72 hours. | See also: Recent months at Latrobe Valley
Date/Time
EST
Temp
°C
App
Temp
°C
Dew
Point
°C
Rel
Hum
%
Delta-T
°C
Wind Press
QNH
hPa
Press
MSL
hPa
Rain since
9am
mm
Dir  Spd
km/h
Gust
km/h
Spd
kts
Gust
kts
24/10:30am 8.5 7.1 3.8 72 2.0 CALM 0 7 0 4 1010.4 1010.5 0.0
24/10:00am 7.2 5.8 3.6 78 1.5 CALM 0 0 0 0 1010.6 1010.7 0.0
24/09:30am 7.1 5.7 3.7 79 1.5 CALM 0 0 0 0 1011.0 1011.1 0.0
24/09:00am 5.0 2.4 4.0 93 0.4 NNE 7 9 4 5 1010.9 1011.0 5.4
24/08:30am 3.0 0.2 2.3 95 0.3 ESE 6 7 3 4 1011.1 1011.2 5.4
24/08:00am 1.6 -0.6 0.9 95 0.3 ENE 2 7 1 4 1011.0 1011.1 5.4
24/07:30am 1.7 -1.8 1.0 95 0.3 E 9 13 5 7 1010.9 1011.0 5.4
24/07:00am 1.9 0.1 1.2 95 0.3 CALM 0 0 0 0 1010.8 1010.9 5.4
24/06:30am 1.8 0.0 0.9 94 0.3 CALM 0 0 0 0 1010.7 1010.8 5.4
24/06:00am 3.0 1.3 2.1 94 0.4 CALM 0 0 0 0 1010.9 1011.0 5.4
24/05:30am 3.2 1.6 2.3 94 0.4 CALM 0 0 0 0 1011.0 1011.1 5.4
24/05:00am 3.1 1.5 2.2 94 0.4 CALM 0 0 0 0 1011.1 1011.2 5.4
24/04:30am 2.9 1.2 1.9 93 0.4 CALM 0 6 0 3 1011.3 1011.4 5.4
24/04:00am 3.2 1.6 2.2 93 0.4 CALM 0 2 0 1 1011.3 1011.4 5.4
24/03:30am 3.1 0.1 1.8 91 0.5 W 7 9 4 5 1011.3 1011.4 5.4
24/03:00am 3.9 1.9 2.3 89 0.6 WNW 2 6 1 3 1011.4 1011.5 5.4
24/02:30am 4.6 1.8 2.9 89 0.7 WSW 7 11 4 6 1011.7 1011.8 5.4
24/02:00am 4.9 2.1 2.9 87 0.8 WSW 7 13 4 7 1011.5 1011.6 5.4
24/01:30am 5.4 2.3 3.4 87 0.8 WNW 9 15 5 8 1011.5 1011.6 5.4
24/01:00am 6.1 2.7 3.9 86 0.9 W 11 13 6 7 1011.7 1011.8 5.4
24/12:30am 6.1 3.1 3.9 86 0.9 WNW 9 13 5 7 1011.9 1012.0 5.4
24/12:00am 6.1 2.7 3.9 86 0.9 W 11 15 6 8 1012.1 1012.3 5.4
 
Date/Time
EST
Temp
°C
App
Temp
°C
Dew
Point
°C
Rel
Hum
%
Delta-T
°C
Wind Press
QNH
hPa
Press
MSL
hPa
Rain since
9am
mm
Dir  Spd
km/h
Gust
km/h
Spd
kts
Gust
kts
23/11:30pm 6.0 2.6 3.8 86 0.9 W 11 20 6 11 1011.9 1012.0 5.4
23/11:00pm 6.0 2.2 4.0 87 0.9 W 13 19 7 10 1011.6 1011.7 5.4
23/10:30pm 5.8 0.3 3.8 87 0.8 WNW 22 30 12 16 1011.5 1011.6 5.2
23/10:00pm 5.9 0.8 3.9 87 0.8 WNW 20 28 11 15 1011.2 1011.3 5.2
23/09:30pm 6.1 1.0 4.1 87 0.9 W 20 28 11 15 1011.0 1011.1 5.2
23/09:08pm 6.2 -0.8 3.9 85 1.0 WNW 30 48 16 26 1010.7 1010.8 5.2
23/09:00pm 6.3 -0.7 4.1 86 0.9 W 30 43 16 23 1010.7 1010.8 5.2
23/08:30pm 6.0 -0.6 4.3 89 0.7 W 28 35 15 19 1010.3 1010.4 5.0
23/08:00pm 6.1 -1.8 4.1 87 0.9 W 35 48 19 26 1009.7 1009.8 4.8
23/07:30pm 5.6 -2.4 3.6 87 0.8 WNW 35 46 19 25 1008.9 1009.0 4.8
23/07:04pm 6.2 -2.5 3.9 85 1.0 W 39 57 21 31 1008.9 1009.0 4.4
23/07:00pm 6.4 -2.8 3.6 82 1.2 W 41 57 22 31 1008.8 1008.9 4.4
23/06:55pm 6.4 -1.5 4.1 85 1.0 W 35 54 19 29 1008.8 1008.9 4.4
23/06:30pm 6.0 -0.6 4.2 88 0.8 W 28 37 15 20 1008.5 1008.6 4.2
23/06:00pm 6.1 -2.3 3.6 84 1.1 W 37 54 20 29 1008.0 1008.1 4.0
23/05:35pm 6.7 -2.0 4.0 83 1.2 W 39 65 21 35 1007.4 1007.5 4.0
23/05:30pm 7.0 -1.3 4.0 81 1.3 W 37 52 20 28 1007.3 1007.4 3.8
23/05:02pm 6.8 -1.2 3.9 82 1.2 W 35 57 19 31 1006.6 1006.7 3.8
23/05:00pm 6.9 -1.1 4.0 82 1.3 W 35 50 19 27 1006.5 1006.6 3.8
23/04:50pm 6.3 -2.0 4.3 87 0.9 WSW 37 46 20 25 1006.4 1006.5 3.8
23/04:34pm 6.2 -2.1 4.0 86 0.9 WSW 37 54 20 29 1006.1 1006.2 3.2
23/04:30pm 6.6 -1.3 4.1 84 1.1 WSW 35 54 19 29 1006.0 1006.1 3.0
23/04:28pm 7.4 0.1 4.5 82 1.3 WSW 32 44 17 24 1006.0 1006.1 2.8
23/04:00pm 7.3 -0.9 4.6 83 1.2 W 37 52 20 28 1005.5 1005.6 2.8
23/03:57pm 7.2 -1.5 4.3 82 1.3 W 39 52 21 28 1005.4 1005.5 2.8
23/03:39pm 6.6 -2.4 4.3 85 1.0 W 41 59 22 32 1005.7 1005.8 2.6
23/03:38pm 6.7 -2.7 4.4 85 1.0 W 43 59 23 32 1005.6 1005.7 2.4
23/03:33pm 7.0 -2.1 4.1 82 1.3 W 41 59 22 32 1005.5 1005.6 2.2
23/03:30pm 7.2 -2.3 3.8 79 1.5 W 43 59 23 32 1005.5 1005.6 2.0
23/03:05pm 8.5 -0.3 3.8 72 2.0 W 39 57 21 31 1004.3 1004.4 1.8
23/03:00pm 8.7 0.0 4.1 73 2.0 W 39 54 21 29 1004.2 1004.3 1.8
23/02:30pm 7.3 -0.5 4.8 84 1.1 W 35 54 19 29 1004.3 1004.4 1.8
23/02:22pm 7.0 -0.9 4.3 83 1.2 WNW 35 54 19 29 1004.2 1004.3 1.8
23/02:00pm 5.6 -3.2 3.6 87 0.8 W 39 54 21 29 1004.6 1004.7 1.8
23/01:33pm 6.6 -2.5 3.9 83 1.2 W 41 59 22 32 1004.4 1004.5 1.8
23/01:30pm 6.5 -2.6 3.8 83 1.1 WNW 41 54 22 29 1004.3 1004.4 1.8
23/01:25pm 6.3 -2.8 3.8 84 1.1 WNW 41 54 22 29 1004.1 1004.2 1.8
23/01:11pm 6.0 -3.1 4.0 87 0.9 W 41 57 22 31 1004.2 1004.3 1.8
23/01:06pm 6.1 -1.9 3.8 85 1.0 WNW 35 56 19 30 1004.0 1004.1 1.6
23/01:04pm 6.4 -1.5 4.2 86 0.9 WNW 35 44 19 24 1004.0 1004.1 1.6
23/01:00pm 6.7 -1.5 4.7 87 0.9 WNW 37 50 20 27 1003.8 1003.9 1.4
23/12:43pm 5.8 -3.8 3.5 85 1.0 WNW 43 67 23 36 1004.1 1004.2 1.2
23/12:37pm 6.4 -2.1 3.0 79 1.4 W 37 63 20 34 1003.5 1003.6 1.0
23/12:30pm 6.9 -1.1 3.9 81 1.3 WNW 35 44 19 24 1003.7 1003.8 1.0
23/12:20pm 6.6 -1.3 4.3 85 1.0 WNW 35 46 19 25 1003.9 1004.0 1.0
23/12:00pm 4.3 -6.1 2.3 87 0.8 W 46 70 25 38 1004.4 1004.5 0.8
23/11:55am 6.7 -3.0 2.8 76 1.6 W 43 61 23 33 1003.8 1003.9 0.4
23/11:30am 6.5 -1.1 4.0 84 1.1 WNW 33 44 18 24 1003.6 1003.7 0.4
23/11:00am 6.1 -1.6 3.3 82 1.2 WNW 33 44 18 24 1003.5 1003.6 0.4
23/10:30am 6.1 -1.4 3.4 83 1.1 W 32 46 17 25 1003.0 1003.1 0.4
23/10:09am 5.9 -1.2 3.4 84 1.0 W 30 50 16 27 1002.7 1002.8 0.4
23/10:07am 5.7 -2.1 3.0 83 1.1 W 33 50 18 27 1002.8 1002.9 0.4
23/10:00am 5.3 -3.7 2.7 83 1.1 W 39 56 21 30 1002.6 1002.7 0.4
23/09:50am 5.2 -3.8 2.7 84 1.0 W 39 61 21 33 1002.3 1002.4 0.4
23/09:38am 6.9 -2.2 1.8 70 2.1 WSW 39 57 21 31 1001.4 1001.5 0.0
23/09:30am 6.8 -4.0 1.7 70 2.1 WSW 48 63 26 34 1001.2 1001.3 0.0
23/09:00am 6.5 -1.7 2.9 78 1.5 W 35 59 19 32 1000.3 1000.4 21.6
23/08:47am 6.4 -4.1 3.4 81 1.3 W 48 69 26 37 1000.0 1000.1 21.6
23/08:46am 6.4 -4.2 3.2 80 1.3 W 48 69 26 37 999.9 1000.0 21.6
23/08:43am 6.4 -3.4 3.2 80 1.3 W 44 69 24 37 1000.0 1000.1 21.6
23/08:37am 6.4 -1.0 4.2 86 0.9 W 32 54 17 29 1000.0 1000.1 21.6
23/08:30am 6.4 -1.1 4.6 88 0.8 W 33 50 18 27 999.9 1000.0 21.4
23/08:09am 6.6 -0.8 4.1 84 1.1 W 32 50 17 27 999.2 999.3 21.4
23/08:00am 6.4 -0.6 4.1 85 1.0 W 30 41 16 22 999.0 999.1 21.2
23/07:54am 6.1 -0.6 3.9 86 0.9 W 28 43 15 23 998.8 998.9 21.2
23/07:44am 6.3 -2.0 4.3 87 0.9 WSW 37 63 20 34 998.8 998.9 21.2
23/07:34am 6.5 -1.3 5.0 90 0.7 W 35 57 19 31 998.6 998.7 20.6
23/07:30am 6.6 -1.2 5.1 90 0.7 W 35 44 19 24 998.4 998.5 20.6
23/07:10am 6.7 -0.7 4.9 88 0.8 WNW 33 44 18 24 997.5 997.6 20.0
23/07:08am 6.7 -0.7 4.9 88 0.8 WNW 33 48 18 26 997.5 997.6 20.0
23/07:00am 6.7 -0.5 5.2 90 0.7 W 32 48 17 26 997.3 997.3 20.0
23/06:59am 6.6 -0.6 5.2 91 0.6 W 32 50 17 27 997.5 997.6 20.0
23/06:54am 6.5 -1.7 5.0 90 0.7 WSW 37 50 20 27 997.5 997.6 20.0
23/06:45am 7.4 -1.0 5.5 88 0.8 W 39 57 21 31 997.2 997.2 19.2
23/06:30am 7.6 0.3 5.4 86 1.0 W 33 52 18 28 996.3 996.3 18.6
23/06:06am 7.7 -0.8 5.3 85 1.1 WNW 39 57 21 31 996.0 996.0 18.6
23/06:00am 7.7 -1.2 5.3 85 1.1 WNW 41 61 22 33 995.9 995.9 18.6
23/05:40am 7.6 -0.4 5.6 87 0.9 W 37 67 20 36 995.4 995.4 18.6
23/05:30am 7.4 0.1 5.5 88 0.8 W 33 48 18 26 995.3 995.3 18.6
23/05:17am 7.4 0.3 5.7 89 0.8 W 32 52 17 28 994.9 994.9 18.4
23/05:12am 7.3 0.7 5.9 91 0.6 W 30 39 16 21 994.8 994.8 18.4
23/05:00am 7.2 2.1 5.8 91 0.6 W 22 33 12 18 994.8 994.8 18.4
23/04:34am 6.7 -0.5 5.0 89 0.7 WSW 32 43 17 23 994.1 994.2 18.4
23/04:30am 6.7 -1.1 5.0 89 0.7 WSW 35 48 19 26 994.0 994.1 18.4
23/04:25am 6.8 -2.7 5.0 88 0.8 WSW 44 61 24 33 993.7 993.8 18.2
23/04:19am 7.1 -3.2 4.9 86 1.0 W 48 61 26 33 993.4 993.5 18.2
23/04:18am 7.3 -2.9 5.3 87 0.9 W 48 63 26 34 993.3 993.4 18.2
23/04:05am 7.9 -2.5 5.9 87 0.9 WNW 50 70 27 38 992.0 992.1 17.8
23/04:00am 8.2 -3.1 5.5 83 1.2 WNW 54 87 29 47 991.6 991.7 17.8
23/03:50am 8.7 -2.2 5.3 79 1.5 WNW 52 83 28 45 991.4 991.5 17.8
23/03:40am 8.8 -0.5 5.2 78 1.6 WNW 43 61 23 33 990.9 991.0 17.6
23/03:30am 9.4 1.2 5.0 74 2.0 WNW 37 48 20 26 991.0 991.1 17.4
23/03:02am 9.4 2.2 5.0 74 2.0 WNW 32 52 17 28 990.9 991.0 17.4
23/03:00am 9.3 2.5 5.3 76 1.8 WNW 30 44 16 24 991.0 991.1 17.4
23/02:49am 9.1 2.8 5.5 78 1.6 WNW 28 43 15 23 991.2 991.3 17.4
23/02:30am 7.8 3.6 5.9 88 0.9 W 17 22 9 12 991.4 991.5 17.4
23/02:00am 7.8 2.7 6.1 89 0.8 W 22 32 12 17 991.4 991.5 17.4
23/01:38am 8.0 1.8 6.1 88 0.9 WNW 28 41 15 22 991.5 991.6 17.4
23/01:30am 8.0 1.8 6.3 89 0.8 WNW 28 39 15 21 991.8 991.9 17.4
23/01:28am 8.0 1.9 6.5 90 0.7 WNW 28 39 15 21 991.7 991.8 17.4
23/01:19am 8.1 2.8 6.6 90 0.7 WNW 24 33 13 18 991.8 991.9 16.8
23/01:11am 8.2 1.7 6.3 88 0.9 WNW 30 48 16 26 991.7 991.8 16.4
23/01:00am 8.3 1.9 6.9 91 0.7 WNW 30 43 16 23 992.2 992.3 15.8
23/12:55am 8.3 3.1 7.1 92 0.6 W 24 43 13 23 992.3 992.4 15.6
23/12:30am 8.3 2.6 6.9 91 0.7 W 26 39 14 21 992.2 992.3 14.2
23/12:12am 8.6 3.4 7.4 92 0.6 W 24 39 13 21 992.5 992.6 13.6
23/12:00am 8.8 7.1 7.7 93 0.5 NW 6 7 3 4 991.9 992.0 12.6
 
Date/Time
EST
Temp
°C
App
Temp
°C
Dew
Point
°C
Rel
Hum
%
Delta-T
°C
Wind Press
QNH
hPa
Press
MSL
hPa
Rain since
9am
mm
Dir  Spd
km/h
Gust
km/h
Spd
kts
Gust
kts
22/11:30pm 8.9 6.7 7.7 92 0.6 NW 9 11 5 6 992.3 992.4 11.6
22/11:00pm 9.1 6.1 7.5 90 0.8 NW 13 17 7 9 992.3 992.4 11.0
22/10:30pm 9.6 6.3 7.9 89 0.8 NNW 15 20 8 11 992.8 992.9 9.8
22/10:00pm 9.5 7.9 7.8 89 0.8 WNW 6 7 3 4 993.5 993.6 8.6
22/09:30pm 9.4 6.8 7.8 90 0.8 WNW 11 17 6 9 994.0 994.1 8.6
22/09:00pm 9.5 6.5 7.8 89 0.8 WNW 13 17 7 9 993.9 994.0 8.6
22/08:30pm 9.8 6.1 8.1 89 0.8 NW 17 24 9 13 994.4 994.5 8.6
22/08:00pm 10.0 6.0 8.4 90 0.8 WNW 19 28 10 15 994.6 994.7 8.4
22/07:30pm 10.2 6.2 8.3 88 0.9 WNW 19 28 10 15 995.0 995.0 8.2
22/07:00pm 10.3 7.0 8.2 87 1.0 W 15 22 8 12 994.6 994.7 7.8
22/06:30pm 10.0 7.5 8.4 90 0.8 WNW 11 19 6 10 994.8 994.8 7.8
22/06:00pm 10.0 6.5 8.6 91 0.7 WNW 17 22 9 12 994.5 994.6 7.8
22/05:30pm 10.1 6.3 8.9 92 0.6 WNW 19 24 10 13 994.5 994.6 7.6
22/05:21pm 10.1 6.3 9.0 93 0.5 NW 19 24 10 13 994.5 994.6 7.6
22/05:05pm 10.1 6.1 9.0 93 0.5 WNW 20 30 11 16 994.8 994.8 7.6
22/05:00pm 10.1 6.1 9.0 93 0.5 WNW 20 30 11 16 995.0 995.0 7.4
22/04:30pm 10.2 5.8 9.0 92 0.6 WNW 22 33 12 18 994.5 994.6 7.0
22/04:00pm 10.4 5.2 9.0 91 0.7 W 26 39 14 21 994.5 994.6 6.4
22/03:38pm 10.8 5.7 9.2 90 0.8 W 26 41 14 22 994.3 994.4 5.6
22/03:30pm 11.0 4.5 9.1 88 0.9 WSW 33 46 18 25 994.1 994.2 5.4
22/03:13pm 11.5 3.5 9.1 85 1.2 W 41 63 22 34 993.8 993.9 4.4
22/03:11pm 11.7 4.1 9.1 84 1.3 W 39 61 21 33 993.6 993.7 4.4
22/03:08pm 13.2 5.8 8.5 73 2.4 WNW 37 56 20 30 993.3 993.4 4.2
22/03:00pm 15.9 9.1 7.9 59 4.1 NW 33 52 18 28 992.3 992.4 4.0
22/02:38pm 16.0 9.3 8.0 59 4.0 NW 33 63 18 34 992.3 992.4 4.0
22/02:30pm 15.9 8.8 7.9 59 4.0 NW 35 48 19 26 992.3 992.4 4.0
22/02:17pm 15.5 8.8 7.5 59 4.0 WNW 32 52 17 28 992.5 992.6 4.0
22/02:00pm 15.0 8.4 8.5 65 3.3 WNW 33 48 18 26 993.0 993.1 4.0
22/01:53pm 15.1 8.9 7.9 62 3.6 WNW 30 48 16 26 993.1 993.2 4.0
22/01:30pm 15.0 8.2 7.5 61 3.7 WNW 33 48 18 26 993.1 993.2 4.0
22/01:00pm 14.9 9.2 8.4 65 3.3 W 28 35 15 19 993.4 993.5 4.0
22/12:30pm 14.6 10.3 9.4 71 2.7 W 22 32 12 17 993.5 993.6 4.0
22/12:00pm 14.5 9.3 10.1 75 2.3 WNW 28 41 15 22 994.1 994.2 4.0
22/11:41am 14.5 8.6 10.5 77 2.1 WNW 32 50 17 27 994.5 994.6 4.0
22/11:30am 14.5 8.4 10.3 76 2.2 NW 33 54 18 29 994.1 994.2 4.0
22/11:21am 15.1 9.8 9.9 71 2.7 NW 28 54 15 29 993.8 993.9 4.0
22/11:00am 14.5 10.2 12.0 85 1.4 WNW 26 41 14 22 995.4 995.4 3.6
22/10:57am 14.6 9.8 11.7 83 1.6 WNW 28 48 15 26 995.4 995.4 3.6
22/10:30am 14.5 11.7 12.7 89 1.0 WNW 19 24 10 13 996.1 996.1 2.4
22/10:00am 14.7 11.7 12.7 88 1.1 WNW 20 32 11 17 995.7 995.7 1.4
22/09:30am 15.2 12.2 13.7 91 0.8 WNW 22 33 12 18 996.3 996.3 1.0
22/09:00am 15.1 12.6 14.0 93 0.6 W 20 30 11 16 996.6 996.6 14.4
22/08:49am 15.0 12.4 13.9 93 0.6 W 20 28 11 15 996.7 996.7 14.0
22/08:30am 14.9 11.2 13.8 93 0.6 WNW 26 39 14 21 996.6 996.6 12.6
22/08:20am 14.6 12.2 13.8 95 0.4 WSW 19 44 10 24 996.6 996.6 10.8
22/08:16am 13.7 12.1 12.9 95 0.4 SSW 13 19 7 10 997.0 997.0 8.4
22/08:00am 12.9 12.2 12.1 95 0.4 S 7 9 4 5 996.3 996.3 7.4
22/07:35am 12.7 12.5 11.8 94 0.5 NNE 4 7 2 4 996.8 996.8 6.6
22/07:30am 12.7 11.9 11.8 94 0.5 E 7 11 4 6 996.6 996.6 6.4
22/07:00am 12.6 11.0 11.5 93 0.6 SSE 11 15 6 8 997.1 997.1 5.0
22/06:47am 12.4 11.0 11.0 91 0.7 SE 9 11 5 6 997.3 997.3 3.6
22/06:30am 12.2 11.6 10.3 88 1.0 ESE 4 11 2 6 997.6 997.7 2.2
22/06:00am 12.4 12.0 9.8 84 1.3 E 2 11 1 6 997.7 997.8 1.4
22/05:30am 12.2 12.1 9.4 83 1.4 CALM 0 0 0 0 997.8 997.9 1.4
22/05:00am 11.0 9.9 8.4 84 1.3 NNE 4 13 2 7 998.8 998.9 1.2
22/04:30am 12.0 9.6 8.8 81 1.6 SE 11 17 6 9 999.4 999.5 1.2
22/04:00am 8.2 5.9 7.4 95 0.4 S 9 13 5 7 1000.2 1000.3 1.2
22/03:30am 7.9 5.9 7.0 94 0.4 W 7 11 4 6 1001.1 1001.2 1.2
22/03:00am 7.6 5.2 6.9 95 0.3 S 9 17 5 9 1001.7 1001.8 1.2
22/02:30am 7.2 5.3 6.8 97 0.2 SE 6 15 3 8 1002.7 1002.8 1.2
22/02:00am 6.2 4.1 5.6 96 0.3 SSE 6 11 3 6 1003.5 1003.6 1.2
22/01:30am 6.8 5.2 6.2 96 0.3 SSW 4 7 2 4 1004.1 1004.2 1.2
22/01:00am 7.7 6.7 7.3 97 0.2 ENE 2 7 1 4 1004.6 1004.7 1.2
22/12:57am 7.7 6.7 7.3 97 0.2 NNW 2 7 1 4 1004.7 1004.8 1.2
22/12:30am 7.3 5.8 6.9 97 0.2 WNW 4 9 2 5 1005.5 1005.6 1.2
22/12:00am 7.0 4.8 6.4 96 0.3 WSW 7 9 4 5 1006.0 1006.1 1.2
 
Date/Time
EST
Temp
°C
App
Temp
°C
Dew
Point
°C
Rel
Hum
%
Delta-T
°C
Wind Press
QNH
hPa
Press
MSL
hPa
Rain since
9am
mm
Dir  Spd
km/h
Gust
km/h
Spd
kts
Gust
kts
21/11:30pm 7.0 6.2 6.4 96 0.3 CALM 0 0 0 0 1006.6 1006.7 1.2
21/11:00pm 7.4 5.9 7.0 97 0.2 NE 4 9 2 5 1007.2 1007.3 1.2
21/10:30pm 6.3 5.3 5.7 96 0.3 CALM 0 9 0 5 1007.7 1007.8 1.2
21/10:05pm 7.4 5.3 6.8 96 0.3 ENE 7 11 4 6 1008.3 1008.4 1.2
21/10:00pm 7.5 5.1 6.9 96 0.3 ENE 9 11 5 6 1008.6 1008.7 1.2
21/09:30pm 6.8 5.9 6.2 96 0.3 CALM 0 0 0 0 1009.3 1009.4 1.2
21/09:13pm 7.0 5.8 6.4 96 0.3 NNW 2 7 1 4 1009.5 1009.6 1.2
21/09:00pm 7.5 6.8 6.9 96 0.3 CALM 0 0 0 0 1009.5 1009.6 1.2
21/08:30pm 7.1 6.3 6.4 95 0.3 CALM 0 0 0 0 1010.2 1010.3 1.2
21/08:01pm 7.1 5.1 6.2 94 0.4 E 6 9 3 5 1010.3 1010.4 1.2
21/08:00pm 7.7 5.8 6.8 94 0.4 E 6 9 3 5 1010.3 1010.4 1.2
21/07:56pm 7.7 5.8 6.8 94 0.4 E 6 9 3 5 1010.1 1010.2 1.2
21/07:46pm 7.6 6.1 6.7 94 0.4 NE 4 7 2 4 1010.3 1010.4 1.2
21/07:30pm 9.1 7.9 8.2 94 0.4 SE 4 9 2 5 1010.6 1010.7 1.2
21/07:00pm 9.4 7.7 8.5 94 0.4 ESE 7 9 4 5 1010.8 1010.9 1.2
21/06:30pm 9.1 7.2 7.5 90 0.8 NE 7 9 4 5 1011.0 1011.1 1.2
21/06:00pm 10.7 9.4 9.1 90 0.8 E 6 9 3 5 1011.0 1011.1 1.2
21/05:30pm 11.3 10.0 9.2 87 1.1 NE 6 9 3 5 1011.3 1011.4 1.2
21/05:00pm 12.5 11.1 9.7 83 1.4 ENE 7 9 4 5 1011.4 1011.5 1.2
21/04:30pm 13.3 11.3 10.3 82 1.6 NE 11 13 6 7 1011.4 1011.5 1.2
21/04:00pm 15.0 13.6 11.0 77 2.1 NNE 9 11 5 6 1011.5 1011.6 1.2
21/03:30pm 14.8 14.8 11.0 78 2.0 NNE 2 7 1 4 1011.8 1011.9 1.2
21/03:00pm 14.8 13.9 11.4 80 1.8 NNE 7 11 4 6 1011.9 1012.0 1.2
21/02:30pm 14.9 15.1 10.5 75 2.3 CALM 0 0 0 0 1012.3 1012.5 1.2
21/02:00pm 13.4 13.4 11.3 87 1.1 ESE 2 9 1 5 1012.6 1012.8 1.2
21/01:30pm 12.3 12.1 10.5 89 0.9 NNW 2 6 1 3 1013.3 1013.4 1.2
21/01:00pm 12.2 11.5 11.3 94 0.5 E 6 7 3 4 1013.6 1013.7 1.2
21/12:38pm 11.3 10.4 10.7 96 0.3 ENE 6 9 3 5 1013.9 1014.0 1.2
21/12:30pm 10.8 9.8 10.2 96 0.3 E 6 9 3 5 1014.2 1014.3 1.2
21/12:10pm 10.7 10.0 10.2 97 0.3 ESE 4 7 2 4 1014.7 1014.8 1.2
21/12:00pm 9.7 8.8 9.2 97 0.2 E 4 7 2 4 1014.8 1014.9 1.2
21/11:56am 9.4 8.8 8.9 97 0.2 ENE 2 7 1 4 1014.8 1014.9 1.2
21/11:37am 9.0 8.7 8.6 97 0.2 CALM 0 0 0 0 1015.4 1015.5 1.0
21/11:30am 8.9 8.6 8.5 97 0.2 CALM 0 0 0 0 1015.4 1015.5 0.8
21/11:00am 8.4 7.6 8.0 97 0.2 WSW 2 7 1 4 1016.0 1016.1 0.2
21/10:56am 8.4 7.6 8.0 97 0.2 W 2 7 1 4 1016.1 1016.2 0.2

Other Formats:

Comma delimited format used in spreadsheet applications
http://www.bom.gov.au/fwo/IDV60801/IDV60801.94891.axf

JavaScript Object Notation format (JSON) in row-major order
http://www.bom.gov.au/fwo/IDV60801/IDV60801.94891.json